createdAt,value
2023-02-03T01:33:54.451Z,21.98
2023-02-03T01:34:54.348Z,21.97
2023-02-03T01:35:54.316Z,21.98
2023-02-03T01:36:54.262Z,21.96
2023-02-03T01:37:54.276Z,21.98
2023-02-03T01:38:54.202Z,21.97
2023-02-03T01:39:54.172Z,21.97
2023-02-03T01:40:54.125Z,21.98
2023-02-03T01:41:54.086Z,21.98
2023-02-03T01:42:54.057Z,21.97
2023-02-03T01:43:54.031Z,21.96
2023-02-03T01:44:53.987Z,21.99
2023-02-03T01:45:54.064Z,21.97
2023-02-03T01:46:53.879Z,21.96
2023-02-03T01:47:53.851Z,21.97
2023-02-03T01:48:53.827Z,21.96
2023-02-03T01:49:53.797Z,21.96
2023-02-03T01:50:53.762Z,21.98
2023-02-03T01:51:53.710Z,21.95
2023-02-03T01:52:53.685Z,21.96
2023-02-03T01:53:53.648Z,21.97
2023-02-03T01:54:53.627Z,21.94
2023-02-03T01:55:53.596Z,21.98
2023-02-03T01:56:53.576Z,21.97
2023-02-03T01:57:53.509Z,21.95
2023-02-03T01:58:53.510Z,21.96
2023-02-03T01:59:53.510Z,21.96
2023-02-03T02:00:53.521Z,21.96
2023-02-03T02:01:53.536Z,21.95
2023-02-03T02:02:53.564Z,21.97
2023-02-03T02:03:53.542Z,21.96
2023-02-03T02:04:53.898Z,21.96
2023-02-03T02:05:53.261Z,21.95
2023-02-03T02:06:53.196Z,21.96
2023-02-03T02:07:53.192Z,21.95
2023-02-03T02:08:53.141Z,21.95
2023-02-03T02:09:53.115Z,21.95
2023-02-03T02:10:53.088Z,21.95
2023-02-03T02:11:53.053Z,21.95
2023-02-03T02:12:53.024Z,21.95
2023-02-03T02:13:52.987Z,21.95
2023-02-03T02:14:52.954Z,21.95
2023-02-03T02:15:52.982Z,21.97
2023-02-03T02:16:52.950Z,21.96
2023-02-03T02:17:52.859Z,21.95
2023-02-03T02:18:52.843Z,21.96
2023-02-03T02:19:52.798Z,21.96
2023-02-03T02:20:52.769Z,21.94
2023-02-03T02:21:52.741Z,21.93
2023-02-03T02:22:52.723Z,21.95
2023-02-03T02:23:52.737Z,21.96
2023-02-03T02:24:52.650Z,21.94
2023-02-03T02:25:52.603Z,21.94
2023-02-03T02:26:52.580Z,21.94
2023-02-03T02:27:52.557Z,21.92
2023-02-03T02:28:52.520Z,21.93
2023-02-03T02:29:52.447Z,21.93
2023-02-03T02:30:52.571Z,21.94
2023-02-03T02:31:52.481Z,21.95
2023-02-03T02:32:52.366Z,21.94
2023-02-03T02:33:52.335Z,21.95
2023-02-03T02:34:52.308Z,21.95
2023-02-03T02:35:52.228Z,21.93
2023-02-03T02:36:52.208Z,21.93
2023-02-03T02:37:52.268Z,21.95
2023-02-03T02:38:52.124Z,21.95
2023-02-03T02:39:52.116Z,21.93
2023-02-03T02:40:52.069Z,21.93
2023-02-03T02:41:52.008Z,21.93
2023-02-03T02:42:51.969Z,21.95
2023-02-03T02:43:51.934Z,21.93
2023-02-03T02:44:51.894Z,21.94
2023-02-03T02:45:51.872Z,21.91
2023-02-03T02:46:51.839Z,21.94
2023-02-03T02:47:51.844Z,21.94
2023-02-03T02:48:51.772Z,21.92
2023-02-03T02:49:51.731Z,21.92
2023-02-03T02:50:51.680Z,21.91
2023-02-03T02:51:51.637Z,21.92
2023-02-03T02:52:51.604Z,21.90
2023-02-03T02:53:51.572Z,21.92
2023-02-03T02:54:51.541Z,21.90
2023-02-03T02:55:51.512Z,21.89
2023-02-03T02:56:51.469Z,21.93
2023-02-03T02:57:51.414Z,21.91
2023-02-03T02:58:51.985Z,21.92
2023-02-03T02:59:51.369Z,21.90
2023-02-03T03:00:51.315Z,21.92
2023-02-03T03:01:51.331Z,21.91
2023-02-03T03:02:51.233Z,21.92
2023-02-03T03:03:51.195Z,21.92
2023-02-03T03:04:52.011Z,21.90
2023-02-03T03:05:51.130Z,21.91
2023-02-03T03:06:51.118Z,21.89
2023-02-03T03:07:51.051Z,21.90
2023-02-03T03:08:51.002Z,21.90
2023-02-03T03:09:50.988Z,21.90
2023-02-03T03:10:50.931Z,21.90
2023-02-03T03:11:50.888Z,21.89
2023-02-03T03:12:50.867Z,21.88
2023-02-03T03:14:51.982Z,21.88
2023-02-03T05:15:46.167Z,21.64
2023-02-03T05:17:46.100Z,21.63
2023-02-03T05:18:46.061Z,21.62
2023-02-03T05:19:46.026Z,21.64
2023-02-03T05:20:45.980Z,21.65
2023-02-03T05:21:45.968Z,21.65
2023-02-03T05:22:45.892Z,21.64
2023-02-03T05:23:45.845Z,21.62
2023-02-03T05:24:45.794Z,21.62
2023-02-03T05:25:45.776Z,21.61
2023-02-03T05:26:45.756Z,21.62
2023-02-03T05:27:45.708Z,21.60
2023-02-03T05:28:45.643Z,21.61
2023-02-03T05:29:45.612Z,21.61
2023-02-03T05:30:45.663Z,21.61
2023-02-03T05:31:45.585Z,21.59
2023-02-03T05:32:45.475Z,21.60
2023-02-03T05:33:45.438Z,21.60
2023-02-03T05:34:45.392Z,21.58
2023-02-03T05:35:45.357Z,21.57
2023-02-03T05:36:45.318Z,21.57
2023-02-03T05:37:45.293Z,21.59
2023-02-03T05:38:45.246Z,21.57
2023-02-03T05:39:45.219Z,21.57
2023-02-03T05:40:45.171Z,21.57
2023-02-03T05:41:45.160Z,21.56
2023-02-03T05:42:45.132Z,21.56
2023-02-03T05:43:45.085Z,21.55
2023-02-03T05:44:45.025Z,21.56
2023-02-03T05:45:45.028Z,21.58
2023-02-03T05:46:44.965Z,21.57
2023-02-03T05:48:44.865Z,21.56
2023-02-03T05:49:44.867Z,21.56
2023-02-03T05:50:44.791Z,21.56
2023-02-03T05:52:44.704Z,21.55
2023-02-03T05:53:44.674Z,21.55
2023-02-03T05:54:44.636Z,21.55
2023-02-03T05:55:44.608Z,21.55
2023-02-03T05:56:44.585Z,21.56
2023-02-03T05:57:44.552Z,21.57
2023-02-03T05:58:44.512Z,21.56
2023-02-03T05:59:44.472Z,21.55
2023-02-03T06:00:44.405Z,21.55
2023-02-03T06:01:44.392Z,21.56
2023-02-03T06:02:44.336Z,21.55
2023-02-03T06:03:46.221Z,21.55
2023-02-03T06:04:44.313Z,21.54
2023-02-03T06:05:44.371Z,21.54
2023-02-03T06:07:44.315Z,21.57
2023-02-03T06:08:44.289Z,21.54
2023-02-03T06:09:44.075Z,21.55
2023-02-03T06:10:44.048Z,21.53
2023-02-03T06:11:43.991Z,21.55
2023-02-03T06:12:44.557Z,21.55
2023-02-03T06:13:43.909Z,21.56
2023-02-03T06:14:43.880Z,21.60
2023-02-03T06:15:43.843Z,21.61
2023-02-03T06:16:43.839Z,21.63
2023-02-03T06:17:43.783Z,21.62
2023-02-03T06:18:43.750Z,21.62
2023-02-03T06:19:43.732Z,21.56
2023-02-03T06:20:43.643Z,21.61
2023-02-03T06:21:43.598Z,21.61
2023-02-03T06:22:43.562Z,21.59
2023-02-03T06:23:43.525Z,21.57
2023-02-03T06:24:43.484Z,21.62
2023-02-03T06:25:43.428Z,21.60
2023-02-03T06:26:43.413Z,21.66
2023-02-03T06:27:43.450Z,21.67
2023-02-03T06:28:43.319Z,21.65
2023-02-03T06:29:43.284Z,21.64
2023-02-03T06:30:43.473Z,21.72
2023-02-03T06:31:43.350Z,21.70
2023-02-03T06:32:43.198Z,21.66
2023-02-03T06:33:43.129Z,19.72
2023-02-03T06:34:43.091Z,18.24
2023-02-03T06:35:43.045Z,17.65
2023-02-03T06:36:43.022Z,17.33
2023-02-03T06:37:42.985Z,17.06
2023-02-03T06:38:42.993Z,16.86
2023-02-03T06:40:43.155Z,16.93
2023-02-03T06:41:43.096Z,17.03
2023-02-03T06:42:43.092Z,17.02
2023-02-03T06:43:43.129Z,17.15
2023-02-03T06:44:43.071Z,17.16
2023-02-03T06:45:43.194Z,17.19
2023-02-03T06:47:43.250Z,17.18
2023-02-03T06:48:43.157Z,17.25
2023-02-03T06:49:43.172Z,17.35
2023-02-03T06:50:43.158Z,17.71
2023-02-03T06:52:43.225Z,18.34
2023-02-03T06:54:43.233Z,18.32
2023-02-03T06:55:43.270Z,18.50
2023-02-03T06:56:43.243Z,18.77
2023-02-03T06:57:43.419Z,18.73
2023-02-03T06:58:43.274Z,18.74
2023-02-03T07:00:43.247Z,18.83
2023-02-03T07:02:43.354Z,18.74
2023-02-03T07:05:43.209Z,18.80
2023-02-03T07:06:43.270Z,18.82
2023-02-03T07:07:43.319Z,18.75
2023-02-03T07:08:43.559Z,18.73
2023-02-03T07:09:43.176Z,18.80
2023-02-03T07:10:43.185Z,18.75
2023-02-03T07:11:43.177Z,18.74
2023-02-03T07:12:43.119Z,18.77
2023-02-03T07:13:43.254Z,18.89
2023-02-03T07:14:43.096Z,18.80
2023-02-03T07:15:43.137Z,18.80
2023-02-03T07:16:43.086Z,18.87
2023-02-03T07:17:43.080Z,18.88
2023-02-03T07:18:47.398Z,18.80
2023-02-03T07:19:45.102Z,18.81
2023-02-03T07:20:43.011Z,18.85
2023-02-03T07:21:42.998Z,18.86
2023-02-03T07:22:43.013Z,18.89
2023-02-03T07:23:43.081Z,18.86
2023-02-03T07:24:43.002Z,18.86
2023-02-03T07:25:43.022Z,18.84
2023-02-03T07:26:43.615Z,18.82
2023-02-03T07:27:43.959Z,18.83
2023-02-03T07:28:42.942Z,18.83
2023-02-03T07:29:42.855Z,18.89
2023-02-03T07:30:42.886Z,18.91
2023-02-03T07:31:42.972Z,19.05
2023-02-03T07:32:42.874Z,19.05
2023-02-03T07:33:42.809Z,19.13
2023-02-03T07:34:42.779Z,19.07
2023-02-03T07:35:42.777Z,19.15
2023-02-03T07:36:42.754Z,19.14
2023-02-03T07:37:42.730Z,19.17
2023-02-03T07:38:43.126Z,19.08
2023-02-03T07:39:42.708Z,19.06
2023-02-03T07:40:42.756Z,19.07
2023-02-03T07:41:42.751Z,19.12
2023-02-03T07:42:44.956Z,19.18
2023-02-03T07:43:42.729Z,19.25
2023-02-03T07:44:42.688Z,19.24
2023-02-03T07:45:43.104Z,19.24
2023-02-03T07:46:42.666Z,19.25
2023-02-03T07:47:44.008Z,19.24
2023-02-03T07:48:42.496Z,19.24
2023-02-03T07:49:43.202Z,19.22
2023-02-03T07:50:42.478Z,19.41
2023-02-03T07:51:42.409Z,19.46
2023-02-03T07:52:42.355Z,19.60
2023-02-03T07:53:42.389Z,19.74
2023-02-03T07:54:42.320Z,19.73
2023-02-03T07:55:42.449Z,19.79
2023-02-03T07:56:42.270Z,19.81
2023-02-03T07:57:42.202Z,19.80
2023-02-03T07:58:42.179Z,19.79
2023-02-03T07:59:42.158Z,19.83
2023-02-03T08:00:42.132Z,19.87
2023-02-03T08:01:42.169Z,19.88
2023-02-03T08:02:42.065Z,19.93
2023-02-03T08:03:42.052Z,20.01
2023-02-03T08:04:42.101Z,20.03
2023-02-03T08:05:41.955Z,20.01
2023-02-03T08:06:41.920Z,20.09
2023-02-03T08:07:41.972Z,20.15
2023-02-03T08:08:41.903Z,20.18
2023-02-03T08:09:41.890Z,20.19
2023-02-03T08:10:41.870Z,20.22
2023-02-03T08:11:41.777Z,20.28
2023-02-03T08:12:43.940Z,20.30
2023-02-03T08:13:41.715Z,20.30
2023-02-03T08:14:41.625Z,20.37
2023-02-03T08:15:41.619Z,20.35
2023-02-03T08:16:42.609Z,20.40
2023-02-03T08:17:41.682Z,20.40
2023-02-03T08:18:42.148Z,20.44
2023-02-03T08:19:41.434Z,20.49
2023-02-03T08:20:41.500Z,20.48
2023-02-03T08:21:41.365Z,20.53
2023-02-03T08:22:41.309Z,20.61
2023-02-03T08:23:41.277Z,20.62
2023-02-03T08:24:41.261Z,20.77
2023-02-03T08:25:41.190Z,20.82
2023-02-03T08:26:41.129Z,20.77
2023-02-03T08:27:41.163Z,20.72
2023-02-03T08:28:41.628Z,20.70
2023-02-03T08:29:41.034Z,20.75
2023-02-03T08:30:40.946Z,20.79
2023-02-03T08:31:41.020Z,20.79
2023-02-03T08:32:40.873Z,20.80
2023-02-03T08:33:41.025Z,20.84
2023-02-03T08:34:41.234Z,20.97
2023-02-03T08:35:40.749Z,21.14
2023-02-03T08:36:40.751Z,21.24
2023-02-03T08:37:40.671Z,20.85
2023-02-03T08:38:40.725Z,20.66
2023-02-03T08:39:41.153Z,18.97
2023-02-03T08:40:40.501Z,18.17
2023-02-03T08:41:40.508Z,18.63
2023-02-03T08:42:43.137Z,18.47
2023-02-03T08:43:40.471Z,18.78
2023-02-03T08:44:40.414Z,18.96
2023-02-03T08:45:40.427Z,19.26
2023-02-03T08:46:40.334Z,19.24
2023-02-03T08:47:40.312Z,19.50
2023-02-03T08:48:40.246Z,19.24
2023-02-03T08:49:40.266Z,19.39
2023-02-03T08:50:40.352Z,19.46
2023-02-03T08:52:40.136Z,19.40
2023-02-03T08:53:40.125Z,19.36
2023-02-03T08:54:41.096Z,19.32
2023-02-03T08:55:40.057Z,19.33
2023-02-03T08:56:39.952Z,19.24
2023-02-03T08:57:40.925Z,19.20
2023-02-03T08:58:39.998Z,19.17
2023-02-03T08:59:39.872Z,19.07
2023-02-03T09:00:40.000Z,19.05
2023-02-03T09:02:39.819Z,19.04
2023-02-03T09:03:42.704Z,19.08
2023-02-03T09:04:39.780Z,19.10
2023-02-03T09:05:39.684Z,19.16
2023-02-03T09:06:39.697Z,19.14
2023-02-03T09:07:39.636Z,19.16
2023-02-03T09:08:39.591Z,19.20
2023-02-03T09:09:39.608Z,19.25
2023-02-03T09:10:39.510Z,19.30
2023-02-03T09:12:44.169Z,19.37
2023-02-03T09:13:39.359Z,19.40
2023-02-03T09:14:39.342Z,19.43
2023-02-03T09:15:39.336Z,19.47
2023-02-03T09:16:39.268Z,19.47
2023-02-03T09:17:39.205Z,19.50
2023-02-03T09:18:39.259Z,19.52
2023-02-03T09:19:39.203Z,19.54
2023-02-03T09:20:39.277Z,19.59
2023-02-03T09:21:44.843Z,19.65
2023-02-03T09:23:41.664Z,20.03
2023-02-03T09:24:41.667Z,20.16
2023-02-03T09:25:38.910Z,20.19
2023-02-03T09:26:38.835Z,20.26
2023-02-03T09:27:38.820Z,20.27
2023-02-03T09:28:38.853Z,20.34
2023-02-03T09:29:38.686Z,20.30
2023-02-03T09:30:38.694Z,20.27
2023-02-03T09:31:38.702Z,20.33
2023-02-03T09:32:38.587Z,20.26
2023-02-03T09:33:38.526Z,20.27
2023-02-03T09:34:38.544Z,20.21
2023-02-03T09:35:38.441Z,20.18
2023-02-03T09:36:38.405Z,20.17
2023-02-03T09:37:38.374Z,20.18
2023-02-03T09:38:38.289Z,20.18
2023-02-03T09:39:38.262Z,20.22
2023-02-03T09:41:38.374Z,20.23
2023-02-03T09:42:38.181Z,20.30
2023-02-03T09:43:38.087Z,20.31
2023-02-03T09:44:38.312Z,20.32
2023-02-03T09:45:38.045Z,20.31
2023-02-03T09:46:37.996Z,20.29
2023-02-03T09:47:37.929Z,20.26
2023-02-03T09:48:37.919Z,20.22
2023-02-03T09:49:37.840Z,20.19
2023-02-03T09:50:37.775Z,20.23
2023-02-03T09:51:38.680Z,20.17
2023-02-03T09:52:37.732Z,20.18
2023-02-03T09:53:37.746Z,20.22
2023-02-03T09:54:37.636Z,20.24
2023-02-03T09:55:37.593Z,20.25
2023-02-03T09:56:37.506Z,20.30
2023-02-03T09:57:37.637Z,20.34
2023-02-03T09:58:37.465Z,20.35
2023-02-03T09:59:37.407Z,20.38
2023-02-03T10:00:37.312Z,20.38
2023-02-03T10:01:37.354Z,20.38
2023-02-03T10:02:37.364Z,20.36
2023-02-03T10:03:37.161Z,20.40
2023-02-03T10:04:37.134Z,20.38
2023-02-03T10:05:37.100Z,20.35
2023-02-03T10:06:37.034Z,20.35
2023-02-03T10:07:37.017Z,20.38
2023-02-03T10:08:36.966Z,20.36
2023-02-03T10:09:36.889Z,20.34
2023-02-03T10:10:36.931Z,20.36
2023-02-03T10:11:36.807Z,20.40
2023-02-03T10:12:36.743Z,20.40
2023-02-03T10:13:38.094Z,20.45
2023-02-03T10:14:36.631Z,20.45
2023-02-03T10:15:36.589Z,20.54
2023-02-03T10:16:36.590Z,20.49
2023-02-03T10:17:36.488Z,20.53
2023-02-03T10:18:37.174Z,20.49
2023-02-03T10:19:36.400Z,20.53
2023-02-03T10:21:37.247Z,20.52
2023-02-03T10:22:37.243Z,20.56
2023-02-03T10:23:36.165Z,20.55
2023-02-03T10:24:36.146Z,20.51
2023-02-03T10:25:36.057Z,20.53
2023-02-03T10:26:36.057Z,20.53
2023-02-03T10:27:36.042Z,20.54
2023-02-03T10:28:35.905Z,20.56
2023-02-03T10:29:35.921Z,20.54
2023-02-03T10:30:35.962Z,20.52
2023-02-03T10:31:36.533Z,20.52
2023-02-03T10:32:35.734Z,20.49
2023-02-03T10:33:35.689Z,20.52
2023-02-03T10:34:36.169Z,20.51
2023-02-03T10:35:35.674Z,20.56
2023-02-03T10:36:35.692Z,20.53
2023-02-03T10:38:35.427Z,20.55
2023-02-03T10:39:35.363Z,20.51
2023-02-03T10:40:35.371Z,20.53
2023-02-03T10:41:35.745Z,20.53
2023-02-03T10:42:35.311Z,20.54
2023-02-03T10:43:35.135Z,20.54
2023-02-03T10:44:35.084Z,20.60
2023-02-03T10:45:35.031Z,20.59
2023-02-03T10:46:35.840Z,20.61
2023-02-03T10:47:35.959Z,20.65
2023-02-03T10:48:35.768Z,20.65
2023-02-03T10:49:34.797Z,20.68
2023-02-03T10:50:34.767Z,20.68
2023-02-03T10:51:35.665Z,20.65
2023-02-03T10:52:34.734Z,20.66
2023-02-03T10:53:34.571Z,20.65
2023-02-03T10:54:34.575Z,20.65
2023-02-03T10:55:34.499Z,20.65
2023-02-03T10:56:34.411Z,20.70
2023-02-03T10:57:34.392Z,20.81
2023-02-03T10:58:35.295Z,20.84
2023-02-03T10:59:34.316Z,20.85
2023-02-03T11:00:34.442Z,20.93
2023-02-03T11:01:34.291Z,20.98
2023-02-03T11:02:34.165Z,21.05
2023-02-03T11:03:34.760Z,21.15
2023-02-03T11:04:34.018Z,21.24
2023-02-03T11:05:33.934Z,21.27
2023-02-03T11:06:33.877Z,21.41
2023-02-03T11:07:33.872Z,21.38
2023-02-03T11:08:33.814Z,21.40
2023-02-03T11:09:33.743Z,21.48
2023-02-03T11:10:33.654Z,21.46
2023-02-03T11:11:33.684Z,21.43
2023-02-03T11:12:34.402Z,21.51
2023-02-03T11:13:33.524Z,21.59
2023-02-03T11:14:33.593Z,21.58
2023-02-03T11:15:33.491Z,21.62
2023-02-03T11:16:33.342Z,21.62
2023-02-03T11:17:33.322Z,21.63
2023-02-03T11:18:33.257Z,21.65
2023-02-03T11:19:33.245Z,21.61
2023-02-03T11:20:33.193Z,21.66
2023-02-03T11:21:33.274Z,21.65
2023-02-03T11:22:33.193Z,21.69
2023-02-03T11:23:32.950Z,21.69
2023-02-03T11:24:33.010Z,21.68
2023-02-03T11:25:32.895Z,21.65
2023-02-03T11:26:32.790Z,21.61
2023-02-03T11:27:32.743Z,21.60
2023-02-03T11:28:32.833Z,21.57
2023-02-03T11:29:32.617Z,21.57
2023-02-03T11:30:32.598Z,21.59
2023-02-03T11:31:32.657Z,21.63
2023-02-03T11:32:32.490Z,21.69
2023-02-03T11:33:32.433Z,21.70
2023-02-03T11:34:32.464Z,21.70
2023-02-03T11:35:32.278Z,21.71
2023-02-03T11:36:32.258Z,21.72
2023-02-03T11:37:32.177Z,21.74
2023-02-03T11:38:32.206Z,21.77
2023-02-03T11:39:32.043Z,21.78
2023-02-03T11:40:32.004Z,21.79
2023-02-03T11:41:31.972Z,21.79
2023-02-03T11:42:31.930Z,21.80
2023-02-03T11:43:31.811Z,21.78
2023-02-03T11:44:31.882Z,21.79
2023-02-03T11:45:31.750Z,21.80
2023-02-03T11:46:31.706Z,21.72
2023-02-03T11:47:31.654Z,21.68
2023-02-03T11:48:31.659Z,21.65
2023-02-03T11:49:32.127Z,21.64
2023-02-03T11:50:31.560Z,21.64
2023-02-03T11:51:31.392Z,21.63
2023-02-03T11:52:31.370Z,21.64
2023-02-03T11:53:31.764Z,21.63
2023-02-03T11:54:31.249Z,21.59
2023-02-03T11:55:31.200Z,21.56
2023-02-03T11:56:31.154Z,21.59
2023-02-03T11:57:31.158Z,21.61
2023-02-03T11:58:31.015Z,21.62
2023-02-03T11:59:30.993Z,21.60
2023-02-03T12:00:30.891Z,21.60
2023-02-03T12:01:30.866Z,21.58
2023-02-03T12:02:30.827Z,21.58
2023-02-03T12:03:31.757Z,21.62
2023-02-03T12:04:30.727Z,21.65
2023-02-03T12:05:30.648Z,21.63
2023-02-03T12:06:31.444Z,21.65
2023-02-03T12:07:30.505Z,21.64
2023-02-03T12:08:30.669Z,21.64
2023-02-03T12:09:30.470Z,21.64
2023-02-03T12:10:30.839Z,21.63
2023-02-03T12:11:30.420Z,21.64
2023-02-03T12:12:30.325Z,21.64
2023-02-03T12:13:31.051Z,21.61
2023-02-03T12:14:30.230Z,21.61
2023-02-03T12:15:30.089Z,21.60
2023-02-03T12:16:30.729Z,21.57
2023-02-03T12:17:29.996Z,21.59
2023-02-03T12:18:29.944Z,21.55
2023-02-03T12:19:29.896Z,21.54
2023-02-03T12:20:30.225Z,21.52
2023-02-03T12:21:29.811Z,21.47
2023-02-03T12:22:31.917Z,21.36
2023-02-03T12:23:29.790Z,21.32
2023-02-03T12:24:30.241Z,21.33
2023-02-03T12:25:29.535Z,21.32
2023-02-03T12:26:29.493Z,21.33
2023-02-03T12:27:29.497Z,21.30
2023-02-03T12:28:33.593Z,21.27
2023-02-03T12:29:31.874Z,21.32
2023-02-03T12:30:29.788Z,21.29
2023-02-03T12:31:29.296Z,21.28
2023-02-03T12:32:29.178Z,21.31
2023-02-03T12:33:29.144Z,21.29
2023-02-03T12:34:30.115Z,21.32
2023-02-03T12:35:31.672Z,21.35
2023-02-03T12:36:28.981Z,21.70
2023-02-03T12:37:28.916Z,21.66
2023-02-03T12:38:28.853Z,21.67
2023-02-03T12:39:28.786Z,21.67
2023-02-03T12:40:28.961Z,21.72
2023-02-03T12:41:28.905Z,21.86
2023-02-03T12:42:28.675Z,21.83
2023-02-03T12:43:28.631Z,21.88
2023-02-03T12:44:28.540Z,21.84
2023-02-03T12:45:28.492Z,21.81
2023-02-03T12:46:28.491Z,21.87
2023-02-03T12:47:28.409Z,21.85
2023-02-03T12:48:28.407Z,21.84
2023-02-03T12:49:28.317Z,21.85
2023-02-03T12:50:28.511Z,22.11
2023-02-03T12:51:28.147Z,22.18
2023-02-03T12:52:28.128Z,22.08
2023-02-03T12:53:29.335Z,22.02
2023-02-03T12:54:27.984Z,21.98
2023-02-03T12:55:27.882Z,21.96
2023-02-03T12:56:27.862Z,21.96
2023-02-03T12:57:27.777Z,21.96
2023-02-03T12:58:27.757Z,21.95
2023-02-03T12:59:27.753Z,21.96
2023-02-03T13:00:28.021Z,21.97
2023-02-03T13:01:27.699Z,21.91
2023-02-03T13:02:27.534Z,21.87
2023-02-03T13:03:27.478Z,21.87
2023-02-03T13:04:27.418Z,21.85
2023-02-03T13:05:27.331Z,21.85
2023-02-03T13:06:27.285Z,21.81
2023-02-03T13:07:27.228Z,21.80
2023-02-03T13:08:27.144Z,21.80
2023-02-03T13:09:27.098Z,21.80
2023-02-03T13:10:27.484Z,21.81
2023-02-03T13:11:26.967Z,21.81
2023-02-03T13:12:26.954Z,21.75
2023-02-03T13:13:26.856Z,21.73
2023-02-03T13:14:26.811Z,21.68
2023-02-03T13:15:26.774Z,21.69
2023-02-03T13:16:26.731Z,21.70
2023-02-03T13:17:26.625Z,21.67
2023-02-03T13:18:26.697Z,21.67
2023-02-03T13:19:26.571Z,21.65
2023-02-03T13:20:26.767Z,21.64
2023-02-03T13:21:26.469Z,21.65
2023-02-03T13:22:26.365Z,21.70
2023-02-03T13:23:26.289Z,21.66
2023-02-03T13:24:26.278Z,21.66
2023-02-03T13:25:26.202Z,21.65
2023-02-03T13:26:26.733Z,21.62
2023-02-03T13:27:26.205Z,21.65
2023-02-03T13:28:26.102Z,21.62
2023-02-03T13:29:26.716Z,21.62
2023-02-03T13:30:26.492Z,21.61
2023-02-03T13:31:26.016Z,21.61
2023-02-03T13:32:25.799Z,21.61
2023-02-03T13:33:25.824Z,21.61
2023-02-03T13:34:25.947Z,21.61
2023-02-03T13:35:33.889Z,21.61
2023-02-03T13:36:26.584Z,21.61
2023-02-03T13:37:25.537Z,21.61
2023-02-03T13:38:25.494Z,21.60
2023-02-03T13:39:25.393Z,21.63
2023-02-03T13:40:25.375Z,21.61
2023-02-03T13:41:25.310Z,21.59
2023-02-03T13:42:25.321Z,21.58
2023-02-03T13:43:37.282Z,21.58
2023-02-03T13:44:26.248Z,21.60
2023-02-03T13:45:25.109Z,21.58
2023-02-03T13:46:25.106Z,21.60
2023-02-03T13:47:25.026Z,21.62
2023-02-03T13:48:24.992Z,21.62
2023-02-03T13:49:24.946Z,21.61
2023-02-03T13:50:25.048Z,21.60
2023-02-03T13:51:24.815Z,21.59
2023-02-03T13:52:24.745Z,21.62
2023-02-03T13:53:24.712Z,21.60
2023-02-03T13:54:24.626Z,21.60
2023-02-03T13:55:25.328Z,21.62
2023-02-03T13:56:24.554Z,21.59
2023-02-03T13:57:24.457Z,21.60
2023-02-03T13:58:25.288Z,21.62
2023-02-03T13:59:24.369Z,21.61
2023-02-03T14:00:24.303Z,21.59
2023-02-03T14:01:24.309Z,21.59
2023-02-03T14:02:24.230Z,21.59
2023-02-03T14:03:24.256Z,21.59
2023-02-03T14:04:24.215Z,21.60
2023-02-03T14:05:24.081Z,21.58
2023-02-03T14:06:24.021Z,21.59
2023-02-03T14:07:23.967Z,21.62
2023-02-03T14:08:23.915Z,21.62
2023-02-03T14:09:23.866Z,21.62
2023-02-03T14:10:24.749Z,21.62
2023-02-03T14:11:23.732Z,21.63
2023-02-03T14:12:23.705Z,21.63
2023-02-03T14:13:23.673Z,21.62
2023-02-03T14:14:24.261Z,21.62
2023-02-03T14:15:23.533Z,21.61
2023-02-03T14:16:23.530Z,21.60
2023-02-03T14:17:23.440Z,21.60
2023-02-03T14:18:23.358Z,21.61
2023-02-03T14:19:23.333Z,21.60
2023-02-03T14:20:23.335Z,21.62
2023-02-03T14:21:23.351Z,21.61
2023-02-03T14:22:23.172Z,21.60
2023-02-03T14:23:23.092Z,21.60
2023-02-03T14:24:23.064Z,21.63
2023-02-03T14:25:23.007Z,21.64
2023-02-03T14:26:22.998Z,21.63
2023-02-03T14:27:22.891Z,21.66
2023-02-03T14:28:22.892Z,21.66
2023-02-03T14:29:22.784Z,21.66
2023-02-03T14:30:22.723Z,21.64
2023-02-03T14:31:22.850Z,21.66
2023-02-03T14:32:22.630Z,21.68
2023-02-03T14:33:23.281Z,21.67
2023-02-03T14:34:22.510Z,21.68
2023-02-03T14:35:22.471Z,21.67
2023-02-03T14:36:22.415Z,21.66
2023-02-03T14:37:22.397Z,21.68
2023-02-03T14:38:22.296Z,21.70
2023-02-03T14:39:22.262Z,21.70
2023-02-03T14:40:22.258Z,21.69
2023-02-03T14:41:22.143Z,21.68
2023-02-03T14:42:22.147Z,21.69
2023-02-03T14:43:22.846Z,21.69
2023-02-03T14:44:22.025Z,21.69
2023-02-03T14:45:21.929Z,21.70
2023-02-03T14:46:21.970Z,21.69
2023-02-03T14:47:21.836Z,21.69
2023-02-03T14:48:21.779Z,21.69
2023-02-03T14:49:21.783Z,21.69
2023-02-03T14:50:21.697Z,21.71
2023-02-03T14:51:23.275Z,21.72
2023-02-03T14:52:21.617Z,21.72
2023-02-03T14:53:21.536Z,21.74
2023-02-03T14:54:21.506Z,21.74
2023-02-03T14:55:21.447Z,21.76
2023-02-03T14:56:21.443Z,21.75
2023-02-03T14:57:21.326Z,21.74
2023-02-03T14:58:21.291Z,21.75
2023-02-03T14:59:21.747Z,21.75
2023-02-03T15:00:21.766Z,21.76
2023-02-03T15:01:21.174Z,21.77
2023-02-03T15:02:21.088Z,21.77
2023-02-03T15:03:21.056Z,21.75
2023-02-03T15:04:21.091Z,21.76
2023-02-03T15:05:20.934Z,21.77
2023-02-03T15:06:20.873Z,21.77
2023-02-03T15:53:18.433Z,21.91
2023-02-03T15:54:18.381Z,21.93
2023-02-03T15:55:18.352Z,21.94
2023-02-03T15:56:18.261Z,21.91
2023-02-03T15:57:18.196Z,21.93
2023-02-03T15:58:18.165Z,21.96
2023-02-03T15:59:18.127Z,21.95
2023-02-03T16:00:18.149Z,21.95
2023-02-03T16:01:18.281Z,21.95
2023-02-03T16:02:17.961Z,21.94
2023-02-03T16:03:18.011Z,21.94
2023-02-03T16:04:17.863Z,21.96
2023-02-03T16:05:17.800Z,21.97
2023-02-03T16:06:17.769Z,22.00
2023-02-03T16:07:17.717Z,22.05
2023-02-03T16:08:17.719Z,22.08
2023-02-03T16:09:17.634Z,22.10
2023-02-03T16:10:17.585Z,22.13
2023-02-03T16:11:17.523Z,22.17
2023-02-03T16:12:17.497Z,22.16
2023-02-03T16:13:17.437Z,22.16
2023-02-03T16:14:17.419Z,22.17
2023-02-03T16:15:17.337Z,22.16
2023-02-03T16:16:17.335Z,22.19
2023-02-03T16:17:17.353Z,22.21
2023-02-03T16:18:17.186Z,22.20
2023-02-03T16:19:17.137Z,22.23
2023-02-03T16:20:17.111Z,22.20
2023-02-03T16:21:17.071Z,22.23
2023-02-03T16:22:16.987Z,22.22
2023-02-03T16:23:16.957Z,22.23
2023-02-03T16:24:16.888Z,22.23
2023-02-03T16:25:16.862Z,22.27
2023-02-03T16:26:16.803Z,22.27
2023-02-03T16:27:16.773Z,22.25
2023-02-03T16:29:16.756Z,22.26
2023-02-03T16:30:16.731Z,22.26
2023-02-03T16:31:16.919Z,22.29
2023-02-03T16:32:16.623Z,22.29
2023-02-03T16:33:16.569Z,22.33
2023-02-03T16:34:16.526Z,22.31
2023-02-03T16:35:16.531Z,22.31
2023-02-03T16:36:16.440Z,22.27
2023-02-03T16:37:17.284Z,22.28
2023-02-03T16:38:16.336Z,22.31
2023-02-03T16:39:16.270Z,22.32
2023-02-03T16:40:16.295Z,22.36
2023-02-03T16:41:16.183Z,22.33
2023-02-03T16:42:16.156Z,22.31
2023-02-03T16:43:16.106Z,22.31
2023-02-03T16:44:16.044Z,22.29
2023-02-03T16:45:17.530Z,22.31
2023-02-03T16:46:16.004Z,22.29
2023-02-03T16:47:15.915Z,22.27
2023-02-03T16:48:15.893Z,22.28
2023-02-03T16:49:15.811Z,22.27
2023-02-03T16:50:16.422Z,22.29
2023-02-03T16:51:15.755Z,22.27
2023-02-03T16:52:15.675Z,22.27
2023-02-03T16:53:15.648Z,22.28
2023-02-03T16:54:15.619Z,22.27
2023-02-03T16:55:15.549Z,22.26
2023-02-03T16:56:15.521Z,22.32
2023-02-03T16:57:15.462Z,22.34
2023-02-03T16:58:15.429Z,22.32
2023-02-03T16:59:15.370Z,22.30
2023-02-03T17:00:15.311Z,22.30
2023-02-03T17:01:15.396Z,22.29
2023-02-03T17:02:15.294Z,22.30
2023-02-03T17:03:15.188Z,22.30
2023-02-03T17:04:15.148Z,22.29
2023-02-03T17:05:15.083Z,22.28
2023-02-03T17:06:15.040Z,22.26
2023-02-03T17:07:14.981Z,22.25
2023-02-03T17:08:14.952Z,22.26
2023-02-03T17:09:14.897Z,22.26
2023-02-03T17:10:14.847Z,22.27
2023-02-03T17:11:14.784Z,22.28
2023-02-03T17:12:14.741Z,22.29
2023-02-03T17:13:14.695Z,22.30
2023-02-03T17:14:14.650Z,22.27
2023-02-03T17:15:14.616Z,22.29
2023-02-03T17:16:14.650Z,22.30
2023-02-03T17:17:14.524Z,22.28
2023-02-03T17:18:14.449Z,22.30
2023-02-03T17:19:14.436Z,22.28
2023-02-03T17:20:14.358Z,22.29
2023-02-03T17:21:14.305Z,22.30
2023-02-03T17:22:14.254Z,22.29
2023-02-03T17:23:14.220Z,22.29
2023-02-03T17:24:14.214Z,22.29
2023-02-03T17:25:14.113Z,22.28
2023-02-03T17:26:14.060Z,22.29
2023-02-03T17:27:13.987Z,22.28
2023-02-03T17:28:14.022Z,22.28
2023-02-03T17:29:13.904Z,22.30
2023-02-03T17:30:13.847Z,22.31
2023-02-03T17:31:13.848Z,22.30
2023-02-03T17:32:13.749Z,22.29